sensor_id;sensor_type;location;lat;lon;timestamp;P1;durP1;ratioP1;P2;durP2;ratioP2
17345;SDS011;8790;53.590;10.002;2022-10-17T00:01:48;7.57;;;4.93;;
17345;SDS011;8790;53.590;10.002;2022-10-17T00:04:20;6.57;;;4.67;;
17345;SDS011;8790;53.590;10.002;2022-10-17T00:06:52;8.47;;;5.07;;
17345;SDS011;8790;53.590;10.002;2022-10-17T00:09:24;7.93;;;5.10;;
17345;SDS011;8790;53.590;10.002;2022-10-17T00:11:57;7.87;;;4.70;;
17345;SDS011;8790;53.590;10.002;2022-10-17T00:14:28;5.70;;;4.43;;
17345;SDS011;8790;53.590;10.002;2022-10-17T00:17:00;7.10;;;4.63;;
17345;SDS011;8790;53.590;10.002;2022-10-17T00:19:32;7.57;;;4.53;;
17345;SDS011;8790;53.590;10.002;2022-10-17T00:22:04;8.30;;;4.30;;
17345;SDS011;8790;53.590;10.002;2022-10-17T00:24:36;7.83;;;4.70;;
17345;SDS011;8790;53.590;10.002;2022-10-17T00:27:09;6.23;;;4.53;;
17345;SDS011;8790;53.590;10.002;2022-10-17T00:29:41;5.90;;;4.10;;
17345;SDS011;8790;53.590;10.002;2022-10-17T00:32:12;9.87;;;4.27;;
17345;SDS011;8790;53.590;10.002;2022-10-17T00:34:44;5.40;;;4.33;;
17345;SDS011;8790;53.590;10.002;2022-10-17T00:37:16;6.40;;;4.10;;
17345;SDS011;8790;53.590;10.002;2022-10-17T00:39:48;5.83;;;4.17;;
17345;SDS011;8790;53.590;10.002;2022-10-17T00:42:22;6.20;;;4.30;;
17345;SDS011;8790;53.590;10.002;2022-10-17T00:44:59;6.60;;;4.13;;
17345;SDS011;8790;53.590;10.002;2022-10-17T00:47:36;5.03;;;4.27;;
17345;SDS011;8790;53.590;10.002;2022-10-17T00:50:08;7.83;;;4.60;;
17345;SDS011;8790;53.590;10.002;2022-10-17T00:52:40;7.70;;;4.57;;
17345;SDS011;8790;53.590;10.002;2022-10-17T00:55:15;5.97;;;4.37;;
17345;SDS011;8790;53.590;10.002;2022-10-17T00:57:51;8.40;;;4.70;;
17345;SDS011;8790;53.590;10.002;2022-10-17T01:00:23;7.77;;;4.50;;
17345;SDS011;8790;53.590;10.002;2022-10-17T01:02:55;5.27;;;3.73;;
17345;SDS011;8790;53.590;10.002;2022-10-17T01:05:27;6.13;;;4.50;;
17345;SDS011;8790;53.590;10.002;2022-10-17T01:08:00;5.50;;;4.03;;
17345;SDS011;8790;53.590;10.002;2022-10-17T01:10:34;5.83;;;3.80;;
17345;SDS011;8790;53.590;10.002;2022-10-17T01:13:16;6.93;;;3.83;;
17345;SDS011;8790;53.590;10.002;2022-10-17T01:15:57;5.23;;;3.97;;
17345;SDS011;8790;53.590;10.002;2022-10-17T01:18:43;5.93;;;3.93;;
17345;SDS011;8790;53.590;10.002;2022-10-17T01:21:25;4.70;;;3.83;;
17345;SDS011;8790;53.590;10.002;2022-10-17T01:24:06;5.37;;;3.93;;
17345;SDS011;8790;53.590;10.002;2022-10-17T01:33:15;6.83;;;3.70;;
17345;SDS011;8790;53.590;10.002;2022-10-17T01:35:51;9.37;;;3.40;;
17345;SDS011;8790;53.590;10.002;2022-10-17T01:38:26;4.63;;;3.07;;
17345;SDS011;8790;53.590;10.002;2022-10-17T01:41:03;7.57;;;3.30;;
17345;SDS011;8790;53.590;10.002;2022-10-17T01:43:43;5.23;;;3.23;;
17345;SDS011;8790;53.590;10.002;2022-10-17T01:46:22;6.47;;;3.37;;
17345;SDS011;8790;53.590;10.002;2022-10-17T01:48:59;6.00;;;3.40;;
17345;SDS011;8790;53.590;10.002;2022-10-17T01:51:33;4.53;;;3.33;;
17345;SDS011;8790;53.590;10.002;2022-10-17T01:54:08;5.97;;;3.37;;
17345;SDS011;8790;53.590;10.002;2022-10-17T01:56:43;6.90;;;3.53;;
17345;SDS011;8790;53.590;10.002;2022-10-17T01:59:18;4.87;;;3.27;;
17345;SDS011;8790;53.590;10.002;2022-10-17T02:01:55;8.90;;;3.93;;
17345;SDS011;8790;53.590;10.002;2022-10-17T02:04:29;5.67;;;3.40;;
17345;SDS011;8790;53.590;10.002;2022-10-17T02:07:05;6.03;;;3.77;;
17345;SDS011;8790;53.590;10.002;2022-10-17T02:09:37;4.77;;;3.17;;
17345;SDS011;8790;53.590;10.002;2022-10-17T02:12:15;5.30;;;2.93;;
17345;SDS011;8790;53.590;10.002;2022-10-17T02:15:01;7.20;;;3.40;;
17345;SDS011;8790;53.590;10.002;2022-10-17T02:17:44;6.73;;;3.50;;
17345;SDS011;8790;53.590;10.002;2022-10-17T02:20:23;4.70;;;3.13;;
17345;SDS011;8790;53.590;10.002;2022-10-17T02:23:02;3.40;;;3.00;;
17345;SDS011;8790;53.590;10.002;2022-10-17T02:25:40;3.30;;;3.00;;
17345;SDS011;8790;53.590;10.002;2022-10-17T02:28:18;4.47;;;3.20;;
17345;SDS011;8790;53.590;10.002;2022-10-17T02:30:52;4.60;;;3.07;;
17345;SDS011;8790;53.590;10.002;2022-10-17T02:33:30;5.07;;;3.13;;
17345;SDS011;8790;53.590;10.002;2022-10-17T02:36:08;5.33;;;2.90;;
17345;SDS011;8790;53.590;10.002;2022-10-17T02:38:42;3.90;;;3.10;;
17345;SDS011;8790;53.590;10.002;2022-10-17T02:41:17;4.33;;;2.80;;
17345;SDS011;8790;53.590;10.002;2022-10-17T02:43:50;7.07;;;3.17;;
17345;SDS011;8790;53.590;10.002;2022-10-17T02:46:23;4.93;;;3.33;;
17345;SDS011;8790;53.590;10.002;2022-10-17T02:49:00;5.10;;;3.40;;
17345;SDS011;8790;53.590;10.002;2022-10-17T02:51:39;5.40;;;3.40;;
17345;SDS011;8790;53.590;10.002;2022-10-17T02:54:16;4.30;;;3.17;;
17345;SDS011;8790;53.590;10.002;2022-10-17T02:56:52;3.47;;;3.00;;
17345;SDS011;8790;53.590;10.002;2022-10-17T02:59:28;5.47;;;3.07;;
17345;SDS011;8790;53.590;10.002;2022-10-17T03:02:02;8.77;;;3.37;;
17345;SDS011;8790;53.590;10.002;2022-10-17T03:04:36;5.10;;;3.20;;
17345;SDS011;8790;53.590;10.002;2022-10-17T03:07:08;5.03;;;3.57;;
17345;SDS011;8790;53.590;10.002;2022-10-17T03:09:40;7.07;;;3.47;;
17345;SDS011;8790;53.590;10.002;2022-10-17T03:12:11;4.47;;;3.60;;
17345;SDS011;8790;53.590;10.002;2022-10-17T03:14:44;5.37;;;3.40;;
17345;SDS011;8790;53.590;10.002;2022-10-17T03:17:16;4.87;;;3.33;;
17345;SDS011;8790;53.590;10.002;2022-10-17T03:19:50;6.17;;;4.43;;
17345;SDS011;8790;53.590;10.002;2022-10-17T03:22:21;5.43;;;3.63;;
17345;SDS011;8790;53.590;10.002;2022-10-17T03:24:53;4.63;;;3.57;;
17345;SDS011;8790;53.590;10.002;2022-10-17T03:27:25;3.50;;;3.20;;
17345;SDS011;8790;53.590;10.002;2022-10-17T03:29:57;4.43;;;3.57;;
17345;SDS011;8790;53.590;10.002;2022-10-17T03:32:28;4.80;;;3.30;;
17345;SDS011;8790;53.590;10.002;2022-10-17T03:35:04;5.97;;;3.70;;
17345;SDS011;8790;53.590;10.002;2022-10-17T03:37:36;3.83;;;3.53;;
17345;SDS011;8790;53.590;10.002;2022-10-17T03:40:08;5.50;;;3.43;;
17345;SDS011;8790;53.590;10.002;2022-10-17T03:42:41;6.07;;;3.40;;
17345;SDS011;8790;53.590;10.002;2022-10-17T03:45:12;5.80;;;3.57;;
17345;SDS011;8790;53.590;10.002;2022-10-17T03:47:45;3.50;;;3.20;;
17345;SDS011;8790;53.590;10.002;2022-10-17T03:50:19;6.23;;;3.50;;
17345;SDS011;8790;53.590;10.002;2022-10-17T03:52:51;4.30;;;3.70;;
17345;SDS011;8790;53.590;10.002;2022-10-17T03:55:23;4.43;;;3.60;;
17345;SDS011;8790;53.590;10.002;2022-10-17T03:57:54;3.83;;;3.40;;
17345;SDS011;8790;53.590;10.002;2022-10-17T04:00:27;4.80;;;3.20;;
17345;SDS011;8790;53.590;10.002;2022-10-17T04:03:01;3.30;;;3.10;;
17345;SDS011;8790;53.590;10.002;2022-10-17T04:05:34;6.33;;;3.57;;
17345;SDS011;8790;53.590;10.002;2022-10-17T04:08:06;5.63;;;3.30;;
17345;SDS011;8790;53.590;10.002;2022-10-17T04:10:57;3.27;;;2.97;;
17345;SDS011;8790;53.590;10.002;2022-10-17T04:13:29;3.33;;;3.00;;
17345;SDS011;8790;53.590;10.002;2022-10-17T04:16:03;7.10;;;3.20;;
17345;SDS011;8790;53.590;10.002;2022-10-17T04:18:37;3.27;;;2.90;;
17345;SDS011;8790;53.590;10.002;2022-10-17T04:21:10;4.10;;;3.20;;
17345;SDS011;8790;53.590;10.002;2022-10-17T04:23:43;3.70;;;3.37;;
17345;SDS011;8790;53.590;10.002;2022-10-17T04:26:29;4.20;;;3.00;;
17345;SDS011;8790;53.590;10.002;2022-10-17T04:29:01;5.23;;;2.93;;
17345;SDS011;8790;53.590;10.002;2022-10-17T04:31:32;4.37;;;3.17;;
17345;SDS011;8790;53.590;10.002;2022-10-17T04:34:19;5.20;;;3.27;;
17345;SDS011;8790;53.590;10.002;2022-10-17T04:36:52;3.37;;;3.07;;
17345;SDS011;8790;53.590;10.002;2022-10-17T04:39:25;3.50;;;3.20;;
17345;SDS011;8790;53.590;10.002;2022-10-17T04:41:57;3.50;;;2.87;;
17345;SDS011;8790;53.590;10.002;2022-10-17T04:44:29;4.90;;;3.30;;
17345;SDS011;8790;53.590;10.002;2022-10-17T04:47:02;3.83;;;3.53;;
17345;SDS011;8790;53.590;10.002;2022-10-17T04:49:34;3.30;;;3.00;;
17345;SDS011;8790;53.590;10.002;2022-10-17T04:52:14;3.40;;;3.10;;
17345;SDS011;8790;53.590;10.002;2022-10-17T04:54:53;5.07;;;3.50;;
17345;SDS011;8790;53.590;10.002;2022-10-17T04:57:25;3.10;;;2.80;;
17345;SDS011;8790;53.590;10.002;2022-10-17T05:00:05;3.63;;;3.20;;
17345;SDS011;8790;53.590;10.002;2022-10-17T05:02:57;3.67;;;3.37;;
17345;SDS011;8790;53.590;10.002;2022-10-17T05:05:30;3.43;;;3.13;;
17345;SDS011;8790;53.590;10.002;2022-10-17T05:08:08;5.17;;;3.27;;
17345;SDS011;8790;53.590;10.002;2022-10-17T05:10:41;4.00;;;3.10;;
17345;SDS011;8790;53.590;10.002;2022-10-17T05:13:15;3.40;;;3.10;;
17345;SDS011;8790;53.590;10.002;2022-10-17T05:15:46;4.23;;;3.60;;
17345;SDS011;8790;53.590;10.002;2022-10-17T05:18:19;4.00;;;2.80;;
17345;SDS011;8790;53.590;10.002;2022-10-17T05:20:51;3.80;;;3.40;;
17345;SDS011;8790;53.590;10.002;2022-10-17T05:23:24;4.50;;;3.30;;
17345;SDS011;8790;53.590;10.002;2022-10-17T05:25:56;3.47;;;3.27;;
17345;SDS011;8790;53.590;10.002;2022-10-17T05:28:28;4.73;;;3.23;;
17345;SDS011;8790;53.590;10.002;2022-10-17T05:31:03;3.40;;;3.10;;
17345;SDS011;8790;53.590;10.002;2022-10-17T05:33:36;4.40;;;3.60;;
17345;SDS011;8790;53.590;10.002;2022-10-17T05:36:09;3.70;;;3.30;;
17345;SDS011;8790;53.590;10.002;2022-10-17T05:38:42;4.80;;;3.37;;
17345;SDS011;8790;53.590;10.002;2022-10-17T05:41:15;4.83;;;3.40;;
17345;SDS011;8790;53.590;10.002;2022-10-17T05:43:47;5.00;;;3.43;;
17345;SDS011;8790;53.590;10.002;2022-10-17T05:46:24;6.83;;;4.17;;
17345;SDS011;8790;53.590;10.002;2022-10-17T05:48:56;4.27;;;3.73;;
17345;SDS011;8790;53.590;10.002;2022-10-17T05:51:31;4.33;;;3.53;;
17345;SDS011;8790;53.590;10.002;2022-10-17T05:54:06;5.80;;;3.63;;
17345;SDS011;8790;53.590;10.002;2022-10-17T05:56:39;3.93;;;3.40;;
17345;SDS011;8790;53.590;10.002;2022-10-17T05:59:11;3.90;;;3.60;;
17345;SDS011;8790;53.590;10.002;2022-10-17T06:01:53;5.73;;;3.50;;
17345;SDS011;8790;53.590;10.002;2022-10-17T06:04:25;4.53;;;3.77;;
17345;SDS011;8790;53.590;10.002;2022-10-17T06:06:58;4.47;;;3.60;;
17345;SDS011;8790;53.590;10.002;2022-10-17T06:09:31;4.47;;;3.70;;
17345;SDS011;8790;53.590;10.002;2022-10-17T06:12:05;3.90;;;3.53;;
17345;SDS011;8790;53.590;10.002;2022-10-17T06:14:37;4.30;;;3.87;;
17345;SDS011;8790;53.590;10.002;2022-10-17T06:17:10;5.80;;;3.47;;
17345;SDS011;8790;53.590;10.002;2022-10-17T06:19:43;4.30;;;3.60;;
17345;SDS011;8790;53.590;10.002;2022-10-17T06:22:16;4.00;;;3.60;;
17345;SDS011;8790;53.590;10.002;2022-10-17T06:24:49;7.50;;;3.90;;
17345;SDS011;8790;53.590;10.002;2022-10-17T06:27:21;4.37;;;3.40;;
17345;SDS011;8790;53.590;10.002;2022-10-17T06:29:53;3.97;;;3.57;;
17345;SDS011;8790;53.590;10.002;2022-10-17T06:32:25;5.27;;;3.50;;
17345;SDS011;8790;53.590;10.002;2022-10-17T06:34:57;7.63;;;4.03;;
17345;SDS011;8790;53.590;10.002;2022-10-17T06:37:30;4.03;;;3.60;;
17345;SDS011;8790;53.590;10.002;2022-10-17T06:40:06;4.33;;;3.70;;
17345;SDS011;8790;53.590;10.002;2022-10-17T06:42:42;5.10;;;3.47;;
17345;SDS011;8790;53.590;10.002;2022-10-17T06:45:28;4.67;;;3.40;;
17345;SDS011;8790;53.590;10.002;2022-10-17T06:48:18;3.57;;;3.27;;
17345;SDS011;8790;53.590;10.002;2022-10-17T06:50:57;4.73;;;3.87;;
17345;SDS011;8790;53.590;10.002;2022-10-17T06:53:31;6.33;;;3.77;;
17345;SDS011;8790;53.590;10.002;2022-10-17T06:56:15;4.47;;;3.50;;
17345;SDS011;8790;53.590;10.002;2022-10-17T06:59:02;8.57;;;4.07;;
17345;SDS011;8790;53.590;10.002;2022-10-17T07:01:38;4.50;;;3.87;;
17345;SDS011;8790;53.590;10.002;2022-10-17T07:04:11;5.37;;;3.57;;
17345;SDS011;8790;53.590;10.002;2022-10-17T07:06:43;7.50;;;3.80;;
17345;SDS011;8790;53.590;10.002;2022-10-17T07:09:19;7.33;;;3.80;;
17345;SDS011;8790;53.590;10.002;2022-10-17T07:11:53;6.07;;;4.30;;
17345;SDS011;8790;53.590;10.002;2022-10-17T07:14:25;5.23;;;3.70;;
17345;SDS011;8790;53.590;10.002;2022-10-17T07:17:01;5.90;;;3.73;;
17345;SDS011;8790;53.590;10.002;2022-10-17T07:19:35;5.63;;;4.03;;
17345;SDS011;8790;53.590;10.002;2022-10-17T07:22:07;5.57;;;4.07;;
17345;SDS011;8790;53.590;10.002;2022-10-17T07:24:41;8.60;;;4.13;;
17345;SDS011;8790;53.590;10.002;2022-10-17T07:27:23;4.63;;;4.03;;
17345;SDS011;8790;53.590;10.002;2022-10-17T07:29:55;6.80;;;3.90;;
17345;SDS011;8790;53.590;10.002;2022-10-17T07:32:36;5.37;;;3.60;;
17345;SDS011;8790;53.590;10.002;2022-10-17T07:35:10;4.97;;;3.90;;
17345;SDS011;8790;53.590;10.002;2022-10-17T07:37:43;5.57;;;3.87;;
17345;SDS011;8790;53.590;10.002;2022-10-17T07:40:18;4.30;;;3.90;;
17345;SDS011;8790;53.590;10.002;2022-10-17T07:42:52;6.33;;;4.13;;
17345;SDS011;8790;53.590;10.002;2022-10-17T07:45:25;4.17;;;3.40;;
17345;SDS011;8790;53.590;10.002;2022-10-17T07:47:58;5.17;;;4.13;;
17345;SDS011;8790;53.590;10.002;2022-10-17T07:50:30;7.77;;;4.27;;
17345;SDS011;8790;53.590;10.002;2022-10-17T07:53:02;6.17;;;4.17;;
17345;SDS011;8790;53.590;10.002;2022-10-17T07:55:35;4.73;;;3.90;;
17345;SDS011;8790;53.590;10.002;2022-10-17T07:58:08;4.20;;;3.80;;
17345;SDS011;8790;53.590;10.002;2022-10-17T08:00:40;7.07;;;4.20;;
17345;SDS011;8790;53.590;10.002;2022-10-17T08:03:12;5.87;;;4.10;;
17345;SDS011;8790;53.590;10.002;2022-10-17T08:05:45;5.57;;;4.13;;
17345;SDS011;8790;53.590;10.002;2022-10-17T08:08:16;4.57;;;4.10;;
17345;SDS011;8790;53.590;10.002;2022-10-17T08:10:48;4.43;;;3.87;;
17345;SDS011;8790;53.590;10.002;2022-10-17T08:13:21;5.67;;;4.30;;
17345;SDS011;8790;53.590;10.002;2022-10-17T08:15:57;5.57;;;4.23;;
17345;SDS011;8790;53.590;10.002;2022-10-17T08:18:29;6.53;;;4.70;;
17345;SDS011;8790;53.590;10.002;2022-10-17T08:21:01;5.37;;;4.03;;
17345;SDS011;8790;53.590;10.002;2022-10-17T08:23:35;7.97;;;4.30;;
17345;SDS011;8790;53.590;10.002;2022-10-17T08:26:07;5.53;;;4.33;;
17345;SDS011;8790;53.590;10.002;2022-10-17T08:28:43;6.57;;;3.93;;
17345;SDS011;8790;53.590;10.002;2022-10-17T08:31:16;5.23;;;4.73;;
17345;SDS011;8790;53.590;10.002;2022-10-17T08:33:49;6.27;;;4.30;;
17345;SDS011;8790;53.590;10.002;2022-10-17T08:36:21;5.50;;;4.00;;
17345;SDS011;8790;53.590;10.002;2022-10-17T08:38:53;5.20;;;4.00;;
17345;SDS011;8790;53.590;10.002;2022-10-17T08:41:33;6.30;;;4.07;;
17345;SDS011;8790;53.590;10.002;2022-10-17T08:44:13;5.77;;;3.80;;
17345;SDS011;8790;53.590;10.002;2022-10-17T08:46:52;4.83;;;4.10;;
17345;SDS011;8790;53.590;10.002;2022-10-17T08:49:43;4.47;;;3.93;;
17345;SDS011;8790;53.590;10.002;2022-10-17T08:52:20;4.50;;;4.10;;
17345;SDS011;8790;53.590;10.002;2022-10-17T08:54:59;7.13;;;4.20;;
17345;SDS011;8790;53.590;10.002;2022-10-17T08:57:31;4.53;;;3.87;;
17345;SDS011;8790;53.590;10.002;2022-10-17T09:00:06;5.53;;;4.10;;
17345;SDS011;8790;53.590;10.002;2022-10-17T09:02:49;7.53;;;4.07;;
17345;SDS011;8790;53.590;10.002;2022-10-17T09:05:32;6.03;;;4.07;;
17345;SDS011;8790;53.590;10.002;2022-10-17T09:08:13;6.40;;;4.20;;
17345;SDS011;8790;53.590;10.002;2022-10-17T09:10:54;7.30;;;3.73;;
17345;SDS011;8790;53.590;10.002;2022-10-17T09:13:35;6.30;;;3.80;;
17345;SDS011;8790;53.590;10.002;2022-10-17T09:16:23;4.40;;;4.00;;
17345;SDS011;8790;53.590;10.002;2022-10-17T09:19:07;6.93;;;3.50;;
17345;SDS011;8790;53.590;10.002;2022-10-17T09:21:42;5.27;;;4.10;;
17345;SDS011;8790;53.590;10.002;2022-10-17T09:24:17;5.17;;;3.87;;
17345;SDS011;8790;53.590;10.002;2022-10-17T09:26:54;4.73;;;3.93;;
17345;SDS011;8790;53.590;10.002;2022-10-17T09:29:26;4.53;;;3.87;;
17345;SDS011;8790;53.590;10.002;2022-10-17T09:32:01;7.20;;;4.30;;
17345;SDS011;8790;53.590;10.002;2022-10-17T09:34:41;7.50;;;4.10;;
17345;SDS011;8790;53.590;10.002;2022-10-17T09:37:13;7.83;;;3.63;;
17345;SDS011;8790;53.590;10.002;2022-10-17T09:39:46;3.93;;;3.47;;
17345;SDS011;8790;53.590;10.002;2022-10-17T09:42:19;5.27;;;3.40;;
17345;SDS011;8790;53.590;10.002;2022-10-17T09:45:01;6.97;;;3.60;;
17345;SDS011;8790;53.590;10.002;2022-10-17T09:47:43;7.23;;;3.93;;
17345;SDS011;8790;53.590;10.002;2022-10-17T09:50:25;5.60;;;3.87;;
17345;SDS011;8790;53.590;10.002;2022-10-17T09:52:59;6.63;;;3.67;;
17345;SDS011;8790;53.590;10.002;2022-10-17T09:55:38;5.10;;;3.60;;
17345;SDS011;8790;53.590;10.002;2022-10-17T09:58:12;6.60;;;3.67;;
17345;SDS011;8790;53.590;10.002;2022-10-17T10:00:45;7.73;;;4.03;;
17345;SDS011;8790;53.590;10.002;2022-10-17T10:03:21;6.07;;;3.60;;
17345;SDS011;8790;53.590;10.002;2022-10-17T10:05:57;7.80;;;4.67;;
17345;SDS011;8790;53.590;10.002;2022-10-17T10:08:33;5.60;;;4.00;;
17345;SDS011;8790;53.590;10.002;2022-10-17T10:11:07;7.87;;;4.37;;
17345;SDS011;8790;53.590;10.002;2022-10-17T10:13:40;5.30;;;4.30;;
17345;SDS011;8790;53.590;10.002;2022-10-17T10:16:15;5.50;;;4.30;;
17345;SDS011;8790;53.590;10.002;2022-10-17T10:18:54;6.17;;;4.47;;
17345;SDS011;8790;53.590;10.002;2022-10-17T10:21:26;12.03;;;4.97;;
17345;SDS011;8790;53.590;10.002;2022-10-17T10:24:03;5.30;;;4.50;;
17345;SDS011;8790;53.590;10.002;2022-10-17T10:26:37;7.17;;;4.53;;
17345;SDS011;8790;53.590;10.002;2022-10-17T10:29:18;8.73;;;4.60;;
17345;SDS011;8790;53.590;10.002;2022-10-17T10:31:53;4.80;;;4.40;;
17345;SDS011;8790;53.590;10.002;2022-10-17T10:34:27;5.93;;;4.37;;
17345;SDS011;8790;53.590;10.002;2022-10-17T10:37:02;8.20;;;4.00;;
17345;SDS011;8790;53.590;10.002;2022-10-17T10:39:39;4.80;;;4.07;;
17345;SDS011;8790;53.590;10.002;2022-10-17T10:42:17;5.60;;;4.40;;
17345;SDS011;8790;53.590;10.002;2022-10-17T10:45:00;7.03;;;4.40;;
17345;SDS011;8790;53.590;10.002;2022-10-17T10:47:34;6.27;;;4.00;;
17345;SDS011;8790;53.590;10.002;2022-10-17T10:50:15;6.17;;;4.17;;
17345;SDS011;8790;53.590;10.002;2022-10-17T10:52:58;6.80;;;4.17;;
17345;SDS011;8790;53.590;10.002;2022-10-17T10:55:42;6.77;;;4.60;;
17345;SDS011;8790;53.590;10.002;2022-10-17T10:58:24;9.23;;;4.83;;
17345;SDS011;8790;53.590;10.002;2022-10-17T11:01:03;6.00;;;4.57;;
17345;SDS011;8790;53.590;10.002;2022-10-17T11:03:41;6.37;;;5.10;;
17345;SDS011;8790;53.590;10.002;2022-10-17T11:06:21;6.17;;;5.20;;
17345;SDS011;8790;53.590;10.002;2022-10-17T11:09:02;9.63;;;5.07;;
17345;SDS011;8790;53.590;10.002;2022-10-17T11:11:42;8.57;;;4.77;;
17345;SDS011;8790;53.590;10.002;2022-10-17T11:14:19;7.93;;;5.13;;
17345;SDS011;8790;53.590;10.002;2022-10-17T11:17:05;11.70;;;5.40;;
17345;SDS011;8790;53.590;10.002;2022-10-17T11:19:43;7.83;;;5.00;;
17345;SDS011;8790;53.590;10.002;2022-10-17T11:22:22;9.03;;;4.60;;
17345;SDS011;8790;53.590;10.002;2022-10-17T11:24:59;6.73;;;5.17;;
17345;SDS011;8790;53.590;10.002;2022-10-17T11:27:34;6.90;;;4.80;;
17345;SDS011;8790;53.590;10.002;2022-10-17T11:30:08;16.60;;;5.80;;
17345;SDS011;8790;53.590;10.002;2022-10-17T11:32:44;6.97;;;4.80;;
17345;SDS011;8790;53.590;10.002;2022-10-17T11:35:19;8.93;;;5.13;;
17345;SDS011;8790;53.590;10.002;2022-10-17T11:37:57;13.70;;;5.10;;
17345;SDS011;8790;53.590;10.002;2022-10-17T11:40:37;6.23;;;4.77;;
17345;SDS011;8790;53.590;10.002;2022-10-17T11:43:13;17.83;;;5.67;;
17345;SDS011;8790;53.590;10.002;2022-10-17T11:45:50;7.23;;;4.67;;
17345;SDS011;8790;53.590;10.002;2022-10-17T11:48:26;9.23;;;4.53;;
17345;SDS011;8790;53.590;10.002;2022-10-17T11:51:03;8.43;;;4.70;;
17345;SDS011;8790;53.590;10.002;2022-10-17T11:53:43;7.27;;;4.30;;
17345;SDS011;8790;53.590;10.002;2022-10-17T11:56:19;5.70;;;4.85;;
17345;SDS011;8790;53.590;10.002;2022-10-17T11:59:13;13.10;;;4.70;;
17345;SDS011;8790;53.590;10.002;2022-10-17T12:01:58;6.75;;;3.95;;
17345;SDS011;8790;53.590;10.002;2022-10-17T12:04:38;7.65;;;4.85;;
17345;SDS011;8790;53.590;10.002;2022-10-17T12:07:18;7.72;;;4.40;;
17345;SDS011;8790;53.590;10.002;2022-10-17T12:09:58;8.48;;;5.45;;
17345;SDS011;8790;53.590;10.002;2022-10-17T12:12:50;13.82;;;6.60;;
17345;SDS011;8790;53.590;10.002;2022-10-17T12:15:29;10.70;;;6.68;;
17345;SDS011;8790;53.590;10.002;2022-10-17T12:18:02;9.47;;;6.43;;
17345;SDS011;8790;53.590;10.002;2022-10-17T12:20:34;8.45;;;5.93;;
17345;SDS011;8790;53.590;10.002;2022-10-17T12:23:20;9.65;;;6.10;;
17345;SDS011;8790;53.590;10.002;2022-10-17T12:25:58;9.30;;;6.37;;
17345;SDS011;8790;53.590;10.002;2022-10-17T12:28:32;8.27;;;6.15;;
17345;SDS011;8790;53.590;10.002;2022-10-17T12:31:21;9.15;;;6.70;;
17345;SDS011;8790;53.590;10.002;2022-10-17T12:33:55;8.67;;;5.87;;
17345;SDS011;8790;53.590;10.002;2022-10-17T12:36:38;8.33;;;6.27;;
17345;SDS011;8790;53.590;10.002;2022-10-17T12:51:23;8.43;;;6.20;;
17345;SDS011;8790;53.590;10.002;2022-10-17T12:53:57;9.30;;;6.65;;
17345;SDS011;8790;53.590;10.002;2022-10-17T12:56:33;10.40;;;6.30;;
17345;SDS011;8790;53.590;10.002;2022-10-17T12:59:11;8.63;;;6.37;;
17345;SDS011;8790;53.590;10.002;2022-10-17T13:01:46;6.93;;;6.10;;
17345;SDS011;8790;53.590;10.002;2022-10-17T13:04:21;10.63;;;6.57;;
17345;SDS011;8790;53.590;10.002;2022-10-17T13:06:54;7.43;;;6.25;;
17345;SDS011;8790;53.590;10.002;2022-10-17T13:09:29;7.07;;;6.30;;
17345;SDS011;8790;53.590;10.002;2022-10-17T13:12:03;6.80;;;6.10;;
17345;SDS011;8790;53.590;10.002;2022-10-17T13:14:41;9.03;;;6.60;;
17345;SDS011;8790;53.590;10.002;2022-10-17T13:17:20;7.87;;;6.77;;
17345;SDS011;8790;53.590;10.002;2022-10-17T13:19:56;10.40;;;7.07;;
17345;SDS011;8790;53.590;10.002;2022-10-17T13:22:29;10.10;;;7.20;;
17345;SDS011;8790;53.590;10.002;2022-10-17T13:25:06;10.00;;;6.70;;
17345;SDS011;8790;53.590;10.002;2022-10-17T13:27:39;11.73;;;7.45;;
17345;SDS011;8790;53.590;10.002;2022-10-17T13:30:23;11.03;;;7.30;;
17345;SDS011;8790;53.590;10.002;2022-10-17T13:32:57;9.80;;;7.90;;
17345;SDS011;8790;53.590;10.002;2022-10-17T13:35:29;12.45;;;7.97;;
17345;SDS011;8790;53.590;10.002;2022-10-17T13:38:04;9.93;;;7.63;;
17345;SDS011;8790;53.590;10.002;2022-10-17T13:40:38;9.00;;;7.87;;
17345;SDS011;8790;53.590;10.002;2022-10-17T13:43:12;8.83;;;7.53;;
17345;SDS011;8790;53.590;10.002;2022-10-17T13:45:48;9.30;;;7.40;;
17345;SDS011;8790;53.590;10.002;2022-10-17T13:48:23;9.57;;;7.50;;
17345;SDS011;8790;53.590;10.002;2022-10-17T13:50:59;10.40;;;7.77;;
17345;SDS011;8790;53.590;10.002;2022-10-17T13:53:33;11.47;;;7.80;;
17345;SDS011;8790;53.590;10.002;2022-10-17T13:56:16;11.07;;;7.70;;
17345;SDS011;8790;53.590;10.002;2022-10-17T13:58:49;10.17;;;7.50;;
17345;SDS011;8790;53.590;10.002;2022-10-17T14:01:24;9.37;;;8.37;;
17345;SDS011;8790;53.590;10.002;2022-10-17T14:03:58;12.13;;;8.27;;
17345;SDS011;8790;53.590;10.002;2022-10-17T14:06:30;9.65;;;8.10;;
17345;SDS011;8790;53.590;10.002;2022-10-17T14:09:02;11.23;;;7.93;;
17345;SDS011;8790;53.590;10.002;2022-10-17T14:11:37;8.83;;;7.93;;
17345;SDS011;8790;53.590;10.002;2022-10-17T14:14:15;10.20;;;8.20;;
17345;SDS011;8790;53.590;10.002;2022-10-17T14:16:51;9.83;;;8.83;;
17345;SDS011;8790;53.590;10.002;2022-10-17T14:19:24;10.83;;;8.77;;
17345;SDS011;8790;53.590;10.002;2022-10-17T14:24:46;9.63;;;8.60;;
17345;SDS011;8790;53.590;10.002;2022-10-17T14:27:24;12.63;;;8.60;;
17345;SDS011;8790;53.590;10.002;2022-10-17T14:29:59;9.90;;;8.70;;
17345;SDS011;8790;53.590;10.002;2022-10-17T14:32:35;10.77;;;8.53;;
17345;SDS011;8790;53.590;10.002;2022-10-17T14:35:15;10.57;;;9.20;;
17345;SDS011;8790;53.590;10.002;2022-10-17T14:37:48;9.93;;;8.83;;
17345;SDS011;8790;53.590;10.002;2022-10-17T14:40:22;14.60;;;9.10;;
17345;SDS011;8790;53.590;10.002;2022-10-17T14:42:55;10.47;;;8.80;;
17345;SDS011;8790;53.590;10.002;2022-10-17T14:45:29;14.37;;;10.03;;
17345;SDS011;8790;53.590;10.002;2022-10-17T14:48:05;13.27;;;9.60;;
17345;SDS011;8790;53.590;10.002;2022-10-17T14:50:41;16.87;;;10.10;;
17345;SDS011;8790;53.590;10.002;2022-10-17T14:53:40;13.23;;;9.73;;
17345;SDS011;8790;53.590;10.002;2022-10-17T14:56:21;11.20;;;10.00;;
17345;SDS011;8790;53.590;10.002;2022-10-17T14:58:53;11.83;;;9.53;;
17345;SDS011;8790;53.590;10.002;2022-10-17T15:01:25;10.83;;;9.73;;
17345;SDS011;8790;53.590;10.002;2022-10-17T15:03:58;13.07;;;10.43;;
17345;SDS011;8790;53.590;10.002;2022-10-17T15:06:31;13.13;;;10.37;;
17345;SDS011;8790;53.590;10.002;2022-10-17T15:09:04;11.03;;;9.93;;
17345;SDS011;8790;53.590;10.002;2022-10-17T15:11:36;10.17;;;9.07;;
17345;SDS011;8790;53.590;10.002;2022-10-17T15:14:08;11.70;;;9.70;;
17345;SDS011;8790;53.590;10.002;2022-10-17T15:16:40;12.33;;;10.17;;
17345;SDS011;8790;53.590;10.002;2022-10-17T15:19:13;13.07;;;10.30;;
17345;SDS011;8790;53.590;10.002;2022-10-17T15:21:44;13.13;;;10.13;;
17345;SDS011;8790;53.590;10.002;2022-10-17T15:24:16;11.73;;;10.27;;
17345;SDS011;8790;53.590;10.002;2022-10-17T15:26:48;11.63;;;10.03;;
17345;SDS011;8790;53.590;10.002;2022-10-17T15:29:20;11.43;;;10.33;;
17345;SDS011;8790;53.590;10.002;2022-10-17T15:31:51;12.37;;;10.27;;
17345;SDS011;8790;53.590;10.002;2022-10-17T15:34:24;11.83;;;10.63;;
17345;SDS011;8790;53.590;10.002;2022-10-17T15:36:56;12.73;;;11.40;;
17345;SDS011;8790;53.590;10.002;2022-10-17T15:39:28;15.70;;;11.40;;
17345;SDS011;8790;53.590;10.002;2022-10-17T15:41:59;12.93;;;11.40;;
17345;SDS011;8790;53.590;10.002;2022-10-17T15:44:31;13.03;;;11.63;;
17345;SDS011;8790;53.590;10.002;2022-10-17T15:47:03;13.60;;;11.40;;
17345;SDS011;8790;53.590;10.002;2022-10-17T15:49:36;15.73;;;11.57;;
17345;SDS011;8790;53.590;10.002;2022-10-17T15:52:08;14.10;;;11.60;;
17345;SDS011;8790;53.590;10.002;2022-10-17T15:54:40;14.37;;;11.50;;
17345;SDS011;8790;53.590;10.002;2022-10-17T15:57:15;12.70;;;11.40;;